California — WDA4337 — position and weather

sailwx.info

Track history (hours):
 
Tides and Currents Weather Stations Pressure Air Temp Water Temp Dewpoint Dewpoint Depression Visibility Wind Speed Wind Dir Waves Ship Positions

California

Owner: SAN FRANCISCO BAR PILOTS, SAN FRANCISCO, CA. More information available from US FCC via Universal Licensing System and Coast Guard Vessel Documentation Center.

Last reported at 2018-Aug-10 17:45 UTC. Time now 2018-Aug-14 07:04 UTC.
Position N 37°48' W 122°24'.

Length 32 m; draft 3 m.

Type: Pilot. MMSI: 366808340.

Date/timePositionNaut miles runAvg speedWind from/ knotsBaromVisibWave heightAir tempDewpointWater temp
2018-Aug-10 17:45N 37°48' W 122°24'0 0.0
2018-Aug-10 17:30N 37°48' W 122°24'0 0.0
2018-Aug-10 17:00N 37°48' W 122°24'0 0.0
2018-Aug-10 16:30N 37°48' W 122°24'0 0.0
2018-Aug-10 16:00N 37°48' W 122°24'0 0.0
2018-Aug-10 15:30N 37°48' W 122°24'0 0.6
2018-Aug-10 15:00N 37°48' W 122°24'713.1
2018-Aug-10 14:31N 37°48' W 122°32'612.9
2018-Aug-10 14:00N 37°46' W 122°40'1 2.0
2018-Aug-10 13:30N 37°47' W 122°40'0 0.6
2018-Aug-10 13:00N 37°46' W 122°40'2 4.2
2018-Aug-10 12:30N 37°44' W 122°40'1 1.2
2018-Aug-10 12:00N 37°44' W 122°41'1 2.4
2018-Aug-10 11:30N 37°45' W 122°42'2 3.1
2018-Aug-10 11:00N 37°44' W 122°41'1 1.3
2018-Aug-10 10:30N 37°45' W 122°41'0 0.3
2018-Aug-10 09:53N 37°45' W 122°41'0 0.8
2018-Aug-10 09:30N 37°45' W 122°40'1 1.7
2018-Aug-10 09:00N 37°44' W 122°39'1 2.1
2018-Aug-10 08:25N 37°45' W 122°41'1 1.2
2018-Aug-10 07:58N 37°46' W 122°41'1 1.4
2018-Aug-10 07:30N 37°46' W 122°41'1 1.3
2018-Aug-10 07:00N 37°46' W 122°40'1 1.5
2018-Aug-10 06:30N 37°46' W 122°41'1 1.4
2018-Aug-10 05:59N 37°46' W 122°40'2 3.2
2018-Aug-10 05:30N 37°47' W 122°38'5 9.5
2018-Aug-10 05:00N 37°48' W 122°32'2 3.6
2018-Aug-10 04:30N 37°48' W 122°30'814.1
2018-Aug-10 03:58N 37°46' W 122°39'1 1.8
2018-Aug-10 03:30N 37°46' W 122°40'1 2.0
2018-Aug-10 03:00N 37°46' W 122°39'1 2.1
2018-Aug-10 02:30N 37°47' W 122°38'1 2.0
2018-Aug-10 01:57N 37°46' W 122°39'2 3.1
2018-Aug-10 01:28N 37°45' W 122°40'1 2.1
2018-Aug-10 00:59N 37°46' W 122°41'1 2.1
2018-Aug-10 00:30N 37°45' W 122°41'1 0.7
2018-Aug-09 23:42N 37°45' W 122°42'0 2.1
2018-Aug-09 23:29N 37°45' W 122°41'1 1.8
2018-Aug-09 23:00N 37°46' W 122°40'2 3.9
2018-Aug-09 22:30N 37°46' W 122°38'1 1.6
2018-Aug-09 22:00N 37°46' W 122°39'2 3.3
2018-Aug-09 21:29N 37°44' W 122°40'1 1.4
2018-Aug-09 20:59N 37°44' W 122°40'0 1.0
2018-Aug-09 20:30N 37°45' W 122°40'2 2.8
2018-Aug-09 19:46N 37°46' W 122°38'1 3.0
2018-Aug-09 19:30N 37°47' W 122°37'1 2.7
2018-Aug-09 18:59N 37°48' W 122°37'1 1.4
2018-Aug-09 18:30N 37°48' W 122°37'1 2.8
2018-Aug-09 18:00N 37°47' W 122°38'1 1.6
2018-Aug-09 17:30N 37°46' W 122°37'2 3.1
2018-Aug-09 17:00N 37°48' W 122°38'2 3.8
2018-Aug-09 16:30N 37°47' W 122°40'2 4.0
2018-Aug-09 16:00N 37°45' W 122°41'1 1.5
2018-Aug-09 15:31N 37°46' W 122°40'1 1.6
2018-Aug-09 15:00N 37°46' W 122°41'2 3.9
2018-Aug-09 14:30N 37°46' W 122°39'1 1.6
2018-Aug-09 14:00N 37°46' W 122°40'0 0.4
2018-Aug-09 13:31N 37°46' W 122°40'2 4.9
2018-Aug-09 13:00N 37°44' W 122°41'2 4.4
2018-Aug-09 12:31N 37°46' W 122°40'1 1.4
2018-Aug-09 12:00N 37°45' W 122°40'1 3.0
2018-Aug-09 11:30N 37°44' W 122°41'1 2.6
2018-Aug-09 11:00N 37°45' W 122°40'2 3.1
2018-Aug-09 10:30N 37°44' W 122°42'1 1.1
2018-Aug-09 10:00N 37°44' W 122°41'1 2.6
2018-Aug-09 09:30N 37°44' W 122°39'1 2.8
2018-Aug-09 09:00N 37°44' W 122°41'1 1.8
2018-Aug-09 08:30N 37°44' W 122°42'1 1.5
2018-Aug-09 08:00N 37°45' W 122°41'1 1.1
2018-Aug-09 07:30N 37°45' W 122°41'1 1.8
2018-Aug-09 07:01N 37°45' W 122°40'0 0.5
2018-Aug-09 06:30N 37°45' W 122°40'2 3.1
2018-Aug-09 06:01N 37°47' W 122°41'1 1.6
2018-Aug-09 05:30N 37°47' W 122°42'1 2.1
2018-Aug-09 05:01N 37°46' W 122°41'0 0.5
2018-Aug-09 04:29N 37°46' W 122°41'2 3.8
2018-Aug-09 04:00N 37°45' W 122°41'1 2.0
2018-Aug-09 03:30N 37°46' W 122°40'1 1.4
2018-Aug-09 03:00N 37°46' W 122°41'0 0.9
2018-Aug-09 02:30N 37°46' W 122°40'0 0.9
2018-Aug-09 02:00N 37°46' W 122°40'1 2.1
2018-Aug-09 01:30N 37°46' W 122°39'1 1.6
2018-Aug-09 01:00N 37°46' W 122°38'0 0.2
2018-Aug-09 00:30N 37°46' W 122°38'0 0.6
2018-Aug-09 00:00N 37°46' W 122°38'2 3.4
2018-Aug-08 23:30N 37°47' W 122°36'3 7.0
2018-Aug-08 23:00N 37°49' W 122°32'0 0.7
2018-Aug-08 22:31N 37°49' W 122°33'4 8.3
2018-Aug-08 22:00N 37°49' W 122°28'4 7.9
2018-Aug-08 21:31N 37°48' W 122°32'611.7
2018-Aug-08 21:01N 37°46' W 122°39'1 1.3
2018-Aug-08 20:30N 37°46' W 122°39'0 0.7
2018-Aug-08 20:00N 37°46' W 122°39'1 2.7
2018-Aug-08 19:30N 37°46' W 122°41'1 2.6
2018-Aug-08 19:00N 37°44' W 122°41'1 2.9
2018-Aug-08 18:30N 37°45' W 122°40'1 2.9
2018-Aug-08 18:01N 37°46' W 122°38'2 2.9
2018-Aug-08 17:30N 37°47' W 122°37'1 1.7
2018-Aug-08 17:00N 37°46' W 122°36'1 2.0
2018-Aug-08 16:30N 37°47' W 122°37'1 2.8
2018-Aug-08 16:00N 37°46' W 122°38'3 6.1
2018-Aug-08 15:30N 37°44' W 122°41'2 4.7
2018-Aug-08 15:00N 37°46' W 122°40'1 1.7
2018-Aug-08 14:30N 37°46' W 122°41'1 1.5
2018-Aug-08 14:00N 37°46' W 122°41'1 2.1
2018-Aug-08 13:30N 37°45' W 122°41'0 0.9
2018-Aug-08 13:00N 37°45' W 122°41'1 2.1
2018-Aug-08 12:30N 37°46' W 122°40'1 1.5
2018-Aug-08 12:01N 37°45' W 122°40'2 3.1
2018-Aug-08 11:30N 37°44' W 122°42'1 2.3
2018-Aug-08 11:00N 37°45' W 122°40'1 1.1
2018-Aug-08 10:30N 37°44' W 122°41'0 0.1
2018-Aug-08 10:00N 37°44' W 122°41'1 2.4
2018-Aug-08 09:30N 37°44' W 122°43'0 0.2
2018-Aug-08 09:00N 37°45' W 122°43'1 2.0
2018-Aug-08 08:30N 37°44' W 122°41'1 2.1
2018-Aug-08 08:00N 37°44' W 122°40'1 1.5
2018-Aug-08 07:30N 37°45' W 122°40'2 3.1
2018-Aug-08 07:00N 37°46' W 122°41'1 1.1
2018-Aug-08 06:30N 37°46' W 122°41'1 1.8
2018-Aug-08 06:01N 37°46' W 122°40'1 1.2
2018-Aug-08 05:30N 37°46' W 122°41'1 1.4
2018-Aug-08 05:00N 37°46' W 122°40'1 2.1
2018-Aug-08 04:30N 37°46' W 122°39'1 2.0
2018-Aug-08 04:00N 37°46' W 122°38'4 8.6
2018-Aug-08 03:30N 37°48' W 122°32'3 6.2
2018-Aug-08 03:00N 37°49' W 122°29'612.3
2018-Aug-08 02:30N 37°46' W 122°36'3 6.2
2018-Aug-08 02:00N 37°46' W 122°40'3 5.2
2018-Aug-08 01:30N 37°46' W 122°37'1 1.7
2018-Aug-08 01:00N 37°46' W 122°35'1 1.3
2018-Aug-08 00:30N 37°47' W 122°36'1 1.1
2018-Aug-08 00:00N 37°47' W 122°35'1 1.4
2018-Aug-07 23:30N 37°47' W 122°35'1 1.1
2018-Aug-07 23:00N 37°47' W 122°35'2 3.1
2018-Aug-07 22:30N 37°47' W 122°37'1 2.9
2018-Aug-07 22:00N 37°46' W 122°39'2 4.9
2018-Aug-07 21:30N 37°45' W 122°42'1 2.7
2018-Aug-07 21:00N 37°44' W 122°41'1 2.0
2018-Aug-07 20:30N 37°45' W 122°40'1 1.9
2018-Aug-07 20:00N 37°46' W 122°41'0 0.8
2018-Aug-07 19:31N 37°46' W 122°41'1 2.2
2018-Aug-07 19:01N 37°46' W 122°40'2 3.0
2018-Aug-07 18:31N 37°46' W 122°38'1 2.4
2018-Aug-07 18:00N 37°45' W 122°39'1 2.9
2018-Aug-07 17:30N 37°44' W 122°41'1 1.1
2018-Aug-07 17:00N 37°44' W 122°42'1 2.3
2018-Aug-07 16:30N 37°45' W 122°40'1 1.3
2018-Aug-07 16:00N 37°45' W 122°41'0 0.4
2018-Aug-07 15:30N 37°46' W 122°40'1 2.1
2018-Aug-07 15:00N 37°46' W 122°40'1 2.1
2018-Aug-07 14:30N 37°46' W 122°38'2 4.7
2018-Aug-07 14:00N 37°45' W 122°41'1 2.7
2018-Aug-07 13:30N 37°45' W 122°42'1 1.5
2018-Aug-07 13:00N 37°44' W 122°42'1 2.5
2018-Aug-07 12:30N 37°44' W 122°40'1 2.2
2018-Aug-07 12:00N 37°46' W 122°40'0 0.7
2018-Aug-07 11:30N 37°46' W 122°40'1 2.6
2018-Aug-07 11:00N 37°45' W 122°41'1 1.8
2018-Aug-07 10:30N 37°46' W 122°41'1 1.9
2018-Aug-07 10:00N 37°46' W 122°40'1 1.8
2018-Aug-07 09:30N 37°46' W 122°41'1 1.9
2018-Aug-07 09:00N 37°46' W 122°40'1 1.4
2018-Aug-07 08:30N 37°45' W 122°39'1 1.8
2018-Aug-07 08:00N 37°45' W 122°40'1 1.5
2018-Aug-07 07:30N 37°46' W 122°41'1 2.3
2018-Aug-07 07:00N 37°46' W 122°40'2 3.6
2018-Aug-07 06:30N 37°46' W 122°38'4 8.4
2018-Aug-07 06:00N 37°48' W 122°33'4 9.0
2018-Aug-07 05:30N 37°49' W 122°27'3 7.0
2018-Aug-07 05:00N 37°48' W 122°31'611.5
2018-Aug-07 04:30N 37°46' W 122°38'2 4.6
2018-Aug-07 04:00N 37°46' W 122°41'1 2.4
2018-Aug-07 03:30N 37°46' W 122°40'1 2.3
2018-Aug-07 03:00N 37°46' W 122°38'1 1.9
2018-Aug-07 02:30N 37°46' W 122°39'1 1.5
2018-Aug-07 02:00N 37°46' W 122°38'1 1.4
2018-Aug-07 01:30N 37°46' W 122°39'1 2.7
2018-Aug-07 00:59N 37°46' W 122°41'1 1.4
2018-Aug-07 00:30N 37°46' W 122°40'0 0.5
2018-Aug-07 00:00N 37°46' W 122°40'0 0.9
2018-Aug-06 23:30N 37°46' W 122°39'2 4.7
2018-Aug-06 23:00N 37°44' W 122°42'0 0.7
2018-Aug-06 22:30N 37°44' W 122°42'1 1.9
2018-Aug-06 22:00N 37°45' W 122°40'2 3.1
2018-Aug-06 21:31N 37°46' W 122°39'1 1.9
2018-Aug-06 21:00N 37°46' W 122°38'3 5.2
2018-Aug-06 20:30N 37°44' W 122°40'2 3.6
2018-Aug-06 20:00N 37°46' W 122°39'1 1.2
2018-Aug-06 19:30N 37°46' W 122°38'2 4.7
2018-Aug-06 19:00N 37°46' W 122°41'1 1.8
2018-Aug-06 18:31N 37°46' W 122°40'1 1.4
2018-Aug-06 17:59N 37°46' W 122°39'1 1.7
2018-Aug-06 17:30N 37°45' W 122°39'2 3.2
2018-Aug-06 17:01N 37°44' W 122°41'2 3.1
2018-Aug-06 16:31N 37°45' W 122°39'1 2.7
2018-Aug-06 16:00N 37°46' W 122°38'612.9
2018-Aug-06 15:30N 37°48' W 122°31'511.0
2018-Aug-06 15:00N 37°48' W 122°24'0 0.0
2018-Aug-06 14:30N 37°48' W 122°24'0 0.0
2018-Aug-06 14:00N 37°48' W 122°24'0 0.0
2018-Aug-06 13:30N 37°48' W 122°24'0 0.0
2018-Aug-06 13:00N 37°48' W 122°24'0 0.0
2018-Aug-05 04:02N 37°48' W 122°24'0 0.0
2018-Aug-05 04:01N 37°48' W 122°24'0 0.0
2018-Aug-05 03:30N 37°48' W 122°24'0 0.0
2018-Aug-05 03:00N 37°48' W 122°24'0 0.0
2018-Aug-05 02:30N 37°48' W 122°24'0 0.0
2018-Aug-05 02:00N 37°48' W 122°24'0 0.0
2018-Aug-05 01:31N 37°48' W 122°24'0 0.0
2018-Aug-05 01:00N 37°48' W 122°24'0 0.0
2018-Aug-05 00:30N 37°48' W 122°24'0 0.0
2018-Aug-05 00:00N 37°48' W 122°24'0 0.0
2018-Aug-04 23:30N 37°48' W 122°24'0 0.0
2018-Aug-04 23:00N 37°48' W 122°24'0 0.0
2018-Aug-04 22:31N 37°48' W 122°24'0 0.0
2018-Aug-04 22:01N 37°48' W 122°24'0 0.0
2018-Aug-04 21:30N 37°48' W 122°24'0 0.0
2018-Aug-04 21:01N 37°48' W 122°24'0 0.0
2018-Aug-04 20:30N 37°48' W 122°24'0 0.0
2018-Aug-04 20:01N 37°48' W 122°24'0 0.0
2018-Aug-04 19:30N 37°48' W 122°24'0 0.0
2018-Aug-04 19:00N 37°48' W 122°24'0 0.0
2018-Aug-04 18:31N 37°48' W 122°24'0 0.0
2018-Aug-04 18:00N 37°48' W 122°24'0 0.0
2018-Aug-04 17:30N 37°48' W 122°24'0 0.0
2018-Aug-04 17:01N 37°48' W 122°24'0 0.0
2018-Aug-04 16:30N 37°48' W 122°24'0 0.0
2018-Aug-04 16:00N 37°48' W 122°24'0 0.0
2018-Aug-04 15:30N 37°48' W 122°24'0 0.0
2018-Aug-04 15:00N 37°48' W 122°24'0 0.0
2018-Aug-04 14:30N 37°48' W 122°24'0 0.0
2018-Aug-04 14:00N 37°48' W 122°24'0 0.0
2018-Aug-04 13:30N 37°48' W 122°24'0 0.0
2018-Aug-04 13:00N 37°48' W 122°24'0 0.0
2018-Aug-04 12:31N 37°48' W 122°24'0 0.0
2018-Aug-04 12:01N 37°48' W 122°24'0 0.0
2018-Aug-04 11:30N 37°48' W 122°24'0 0.0
2018-Aug-04 11:00N 37°48' W 122°24'0 0.0
2018-Aug-04 10:31N 37°48' W 122°24'0 0.0
2018-Aug-04 10:00N 37°48' W 122°24'0 0.0
2018-Aug-04 09:30N 37°48' W 122°24'0 0.0
2018-Aug-04 09:00N 37°48' W 122°24'0 0.0
2018-Aug-04 08:30N 37°48' W 122°24'0 0.0
2018-Aug-04 08:00N 37°48' W 122°24'0 0.0
2018-Aug-04 07:30N 37°48' W 122°24'0 0.0
2018-Aug-04 07:00N 37°48' W 122°24'0 0.0
2018-Aug-04 06:30N 37°48' W 122°24'0 0.0
2018-Aug-04 06:00N 37°48' W 122°24'0 0.0
2018-Aug-04 05:30N 37°48' W 122°24'0 0.0
2018-Aug-04 05:01N 37°48' W 122°24'0 0.0
2018-Aug-04 04:30N 37°48' W 122°24'0 0.0
2018-Aug-04 04:00N 37°48' W 122°24'0 0.0
2018-Aug-04 03:30N 37°48' W 122°24'0 0.0
2018-Aug-04 03:00N 37°48' W 122°24'0 0.0
2018-Aug-04 02:30N 37°48' W 122°24'0 0.0
2018-Aug-04 02:00N 37°48' W 122°24'0 0.0
2018-Aug-04 01:30N 37°48' W 122°24'0 0.0
2018-Aug-04 01:00N 37°48' W 122°24'0 0.0
2018-Aug-04 00:31N 37°48' W 122°24'0 0.0
2018-Aug-04 00:01N 37°48' W 122°24'0 0.0
2018-Aug-03 23:30N 37°48' W 122°24'0 0.0
2018-Aug-03 23:00N 37°48' W 122°24'0 0.0
2018-Aug-03 22:30N 37°48' W 122°24'0 0.0
2018-Aug-03 22:00N 37°48' W 122°24'0 0.0
2018-Aug-03 21:29N 37°48' W 122°24'0 0.0
2018-Aug-03 21:01N 37°48' W 122°24'0 0.0
2018-Aug-03 20:30N 37°48' W 122°24'0 0.0
2018-Aug-03 20:00N 37°48' W 122°24'0 0.0
2018-Aug-03 19:30N 37°48' W 122°24'0 0.0
2018-Aug-03 19:01N 37°48' W 122°24'0 0.0
2018-Aug-03 18:30N 37°48' W 122°24'0 0.0
2018-Aug-03 18:00N 37°48' W 122°24'0 0.0
2018-Aug-03 17:30N 37°48' W 122°24'0 0.0
2018-Aug-03 17:00N 37°48' W 122°24'0 0.0
2018-Aug-03 16:30N 37°48' W 122°24'0 0.0
2018-Aug-03 16:00N 37°48' W 122°24'0 0.0
2018-Aug-03 15:31N 37°48' W 122°24'0 0.0
2018-Aug-03 15:00N 37°48' W 122°24'0 0.0
2018-Aug-03 14:30N 37°48' W 122°24'0 0.0
2018-Aug-03 14:00N 37°48' W 122°24'0 0.0
2018-Aug-03 13:30N 37°48' W 122°24'0 0.0
2018-Aug-03 13:00N 37°48' W 122°24'0 0.0
2018-Aug-03 12:30N 37°48' W 122°24'0 0.0
2018-Aug-03 12:01N 37°48' W 122°24'0 0.0
2018-Aug-03 11:30N 37°48' W 122°24'0 0.0
2018-Aug-03 11:00N 37°48' W 122°24'0 0.0
2018-Aug-03 10:30N 37°48' W 122°24'0 0.0
2018-Aug-03 10:00N 37°48' W 122°24'0 0.0
2018-Aug-03 09:31N 37°48' W 122°24'0 0.0
2018-Aug-03 09:00N 37°48' W 122°24'0 0.0
2018-Aug-03 08:30N 37°48' W 122°24'0 0.0
2018-Aug-03 08:00N 37°48' W 122°24'0 0.0
2018-Aug-03 07:31N 37°48' W 122°24'0 0.0
2018-Aug-03 07:00N 37°48' W 122°24'0 0.0
2018-Aug-03 06:30N 37°48' W 122°24'0 0.0
2018-Aug-03 06:00N 37°48' W 122°24'0 0.0
2018-Aug-03 05:31N 37°48' W 122°24'0 0.0
2018-Aug-03 05:01N 37°48' W 122°24'0 0.0
2018-Aug-03 04:31N 37°48' W 122°24'0 0.0
2018-Aug-03 04:00N 37°48' W 122°24'0 0.0
2018-Aug-03 03:30N 37°48' W 122°24'0 0.0
2018-Aug-03 03:00N 37°48' W 122°24'0 0.0
2018-Aug-03 02:30N 37°48' W 122°24'0 0.0
2018-Aug-03 02:00N 37°48' W 122°24'0 0.0
2018-Aug-03 01:30N 37°48' W 122°24'0 0.0
2018-Aug-03 01:00N 37°48' W 122°24'0 0.0
2018-Aug-03 00:31N 37°48' W 122°24'0 0.0
2018-Aug-03 00:00N 37°48' W 122°24'0 0.0
2018-Aug-02 23:30N 37°48' W 122°24'0 0.0
2018-Aug-02 23:00N 37°48' W 122°24'0 0.0
2018-Aug-02 22:30N 37°48' W 122°24'0 0.0
2018-Aug-02 22:00N 37°48' W 122°24'0 0.0
2018-Aug-02 21:30N 37°48' W 122°24'0 0.0
2018-Aug-02 21:00N 37°48' W 122°24'0 0.0
2018-Aug-02 20:30N 37°48' W 122°24'0 0.0
2018-Aug-02 20:00N 37°48' W 122°24'0 0.0
2018-Aug-02 19:30N 37°48' W 122°24'0 0.0
2018-Aug-02 19:01N 37°48' W 122°24'0 0.0
2018-Aug-02 18:30N 37°48' W 122°24'  
Track history (hours):
 
Tides and Currents Weather Stations Pressure Air Temp Water Temp Dewpoint Dewpoint Depression Visibility Wind Speed Wind Dir Waves Ship Positions

California

Owner: SAN FRANCISCO BAR PILOTS, SAN FRANCISCO, CA. More information available from US FCC via Universal Licensing System and Coast Guard Vessel Documentation Center.

Last reported at 2018-Aug-10 17:45 UTC. Time now 2018-Aug-14 07:04 UTC.
Position N 37°48' W 122°24'.

Length 32 m; draft 3 m.

Type: Pilot. MMSI: 366808340.

Date/timePositionNaut miles runAvg speedWind from/ knotsBaromVisibWave heightAir tempDewpointWater temp
2018-Aug-10 17:45N 37°48' W 122°24'0 0.0
2018-Aug-10 17:30N 37°48' W 122°24'0 0.0
2018-Aug-10 17:00N 37°48' W 122°24'0 0.0
2018-Aug-10 16:30N 37°48' W 122°24'0 0.0
2018-Aug-10 16:00N 37°48' W 122°24'0 0.0
2018-Aug-10 15:30N 37°48' W 122°24'0 0.6
2018-Aug-10 15:00N 37°48' W 122°24'713.1
2018-Aug-10 14:31N 37°48' W 122°32'612.9
2018-Aug-10 14:00N 37°46' W 122°40'1 2.0
2018-Aug-10 13:30N 37°47' W 122°40'0 0.6
2018-Aug-10 13:00N 37°46' W 122°40'2 4.2
2018-Aug-10 12:30N 37°44' W 122°40'1 1.2
2018-Aug-10 12:00N 37°44' W 122°41'1 2.4
2018-Aug-10 11:30N 37°45' W 122°42'2 3.1
2018-Aug-10 11:00N 37°44' W 122°41'1 1.3
2018-Aug-10 10:30N 37°45' W 122°41'0 0.3
2018-Aug-10 09:53N 37°45' W 122°41'0 0.8
2018-Aug-10 09:30N 37°45' W 122°40'1 1.7
2018-Aug-10 09:00N 37°44' W 122°39'1 2.1
2018-Aug-10 08:25N 37°45' W 122°41'1 1.2
2018-Aug-10 07:58N 37°46' W 122°41'1 1.4
2018-Aug-10 07:30N 37°46' W 122°41'1 1.3
2018-Aug-10 07:00N 37°46' W 122°40'1 1.5
2018-Aug-10 06:30N 37°46' W 122°41'1 1.4
2018-Aug-10 05:59N 37°46' W 122°40'2 3.2
2018-Aug-10 05:30N 37°47' W 122°38'5 9.5
2018-Aug-10 05:00N 37°48' W 122°32'2 3.6
2018-Aug-10 04:30N 37°48' W 122°30'814.1
2018-Aug-10 03:58N 37°46' W 122°39'1 1.8
2018-Aug-10 03:30N 37°46' W 122°40'1 2.0
2018-Aug-10 03:00N 37°46' W 122°39'1 2.1
2018-Aug-10 02:30N 37°47' W 122°38'1 2.0
2018-Aug-10 01:57N 37°46' W 122°39'2 3.1
2018-Aug-10 01:28N 37°45' W 122°40'1 2.1
2018-Aug-10 00:59N 37°46' W 122°41'1 2.1
2018-Aug-10 00:30N 37°45' W 122°41'1 0.7
2018-Aug-09 23:42N 37°45' W 122°42'0 2.1
2018-Aug-09 23:29N 37°45' W 122°41'1 1.8
2018-Aug-09 23:00N 37°46' W 122°40'2 3.9
2018-Aug-09 22:30N 37°46' W 122°38'1 1.6
2018-Aug-09 22:00N 37°46' W 122°39'2 3.3
2018-Aug-09 21:29N 37°44' W 122°40'1 1.4
2018-Aug-09 20:59N 37°44' W 122°40'0 1.0
2018-Aug-09 20:30N 37°45' W 122°40'2 2.8
2018-Aug-09 19:46N 37°46' W 122°38'1 3.0
2018-Aug-09 19:30N 37°47' W 122°37'1 2.7
2018-Aug-09 18:59N 37°48' W 122°37'1 1.4
2018-Aug-09 18:30N 37°48' W 122°37'1 2.8
2018-Aug-09 18:00N 37°47' W 122°38'1 1.6
2018-Aug-09 17:30N 37°46' W 122°37'2 3.1
2018-Aug-09 17:00N 37°48' W 122°38'2 3.8
2018-Aug-09 16:30N 37°47' W 122°40'2 4.0
2018-Aug-09 16:00N 37°45' W 122°41'1 1.5
2018-Aug-09 15:31N 37°46' W 122°40'1 1.6
2018-Aug-09 15:00N 37°46' W 122°41'2 3.9
2018-Aug-09 14:30N 37°46' W 122°39'1 1.6
2018-Aug-09 14:00N 37°46' W 122°40'0 0.4
2018-Aug-09 13:31N 37°46' W 122°40'2 4.9
2018-Aug-09 13:00N 37°44' W 122°41'2 4.4
2018-Aug-09 12:31N 37°46' W 122°40'1 1.4
2018-Aug-09 12:00N 37°45' W 122°40'1 3.0
2018-Aug-09 11:30N 37°44' W 122°41'1 2.6
2018-Aug-09 11:00N 37°45' W 122°40'2 3.1
2018-Aug-09 10:30N 37°44' W 122°42'1 1.1
2018-Aug-09 10:00N 37°44' W 122°41'1 2.6
2018-Aug-09 09:30N 37°44' W 122°39'1 2.8
2018-Aug-09 09:00N 37°44' W 122°41'1 1.8
2018-Aug-09 08:30N 37°44' W 122°42'1 1.5
2018-Aug-09 08:00N 37°45' W 122°41'1 1.1
2018-Aug-09 07:30N 37°45' W 122°41'1 1.8
2018-Aug-09 07:01N 37°45' W 122°40'0 0.5
2018-Aug-09 06:30N 37°45' W 122°40'2 3.1
2018-Aug-09 06:01N 37°47' W 122°41'1 1.6
2018-Aug-09 05:30N 37°47' W 122°42'1 2.1
2018-Aug-09 05:01N 37°46' W 122°41'0 0.5
2018-Aug-09 04:29N 37°46' W 122°41'2 3.8
2018-Aug-09 04:00N 37°45' W 122°41'1 2.0
2018-Aug-09 03:30N 37°46' W 122°40'1 1.4
2018-Aug-09 03:00N 37°46' W 122°41'0 0.9
2018-Aug-09 02:30N 37°46' W 122°40'0 0.9
2018-Aug-09 02:00N 37°46' W 122°40'1 2.1
2018-Aug-09 01:30N 37°46' W 122°39'1 1.6
2018-Aug-09 01:00N 37°46' W 122°38'0 0.2
2018-Aug-09 00:30N 37°46' W 122°38'0 0.6
2018-Aug-09 00:00N 37°46' W 122°38'2 3.4
2018-Aug-08 23:30N 37°47' W 122°36'3 7.0
2018-Aug-08 23:00N 37°49' W 122°32'0 0.7
2018-Aug-08 22:31N 37°49' W 122°33'4 8.3
2018-Aug-08 22:00N 37°49' W 122°28'4 7.9
2018-Aug-08 21:31N 37°48' W 122°32'611.7
2018-Aug-08 21:01N 37°46' W 122°39'1 1.3
2018-Aug-08 20:30N 37°46' W 122°39'0 0.7
2018-Aug-08 20:00N 37°46' W 122°39'1 2.7
2018-Aug-08 19:30N 37°46' W 122°41'1 2.6
2018-Aug-08 19:00N 37°44' W 122°41'1 2.9
2018-Aug-08 18:30N 37°45' W 122°40'1 2.9
2018-Aug-08 18:01N 37°46' W 122°38'2 2.9
2018-Aug-08 17:30N 37°47' W 122°37'1 1.7
2018-Aug-08 17:00N 37°46' W 122°36'1 2.0
2018-Aug-08 16:30N 37°47' W 122°37'1 2.8
2018-Aug-08 16:00N 37°46' W 122°38'3 6.1
2018-Aug-08 15:30N 37°44' W 122°41'2 4.7
2018-Aug-08 15:00N 37°46' W 122°40'1 1.7
2018-Aug-08 14:30N 37°46' W 122°41'1 1.5
2018-Aug-08 14:00N 37°46' W 122°41'1 2.1
2018-Aug-08 13:30N 37°45' W 122°41'0 0.9
2018-Aug-08 13:00N 37°45' W 122°41'1 2.1
2018-Aug-08 12:30N 37°46' W 122°40'1 1.5
2018-Aug-08 12:01N 37°45' W 122°40'2 3.1
2018-Aug-08 11:30N 37°44' W 122°42'1 2.3
2018-Aug-08 11:00N 37°45' W 122°40'1 1.1
2018-Aug-08 10:30N 37°44' W 122°41'0 0.1
2018-Aug-08 10:00N 37°44' W 122°41'1 2.4
2018-Aug-08 09:30N 37°44' W 122°43'0 0.2
2018-Aug-08 09:00N 37°45' W 122°43'1 2.0
2018-Aug-08 08:30N 37°44' W 122°41'1 2.1
2018-Aug-08 08:00N 37°44' W 122°40'1 1.5
2018-Aug-08 07:30N 37°45' W 122°40'2 3.1
2018-Aug-08 07:00N 37°46' W 122°41'1 1.1
2018-Aug-08 06:30N 37°46' W 122°41'1 1.8
2018-Aug-08 06:01N 37°46' W 122°40'1 1.2
2018-Aug-08 05:30N 37°46' W 122°41'1 1.4
2018-Aug-08 05:00N 37°46' W 122°40'1 2.1
2018-Aug-08 04:30N 37°46' W 122°39'1 2.0
2018-Aug-08 04:00N 37°46' W 122°38'4 8.6
2018-Aug-08 03:30N 37°48' W 122°32'3 6.2
2018-Aug-08 03:00N 37°49' W 122°29'612.3
2018-Aug-08 02:30N 37°46' W 122°36'3 6.2
2018-Aug-08 02:00N 37°46' W 122°40'3 5.2
2018-Aug-08 01:30N 37°46' W 122°37'1 1.7
2018-Aug-08 01:00N 37°46' W 122°35'1 1.3
2018-Aug-08 00:30N 37°47' W 122°36'1 1.1
2018-Aug-08 00:00N 37°47' W 122°35'1 1.4
2018-Aug-07 23:30N 37°47' W 122°35'1 1.1
2018-Aug-07 23:00N 37°47' W 122°35'2 3.1
2018-Aug-07 22:30N 37°47' W 122°37'1 2.9
2018-Aug-07 22:00N 37°46' W 122°39'2 4.9
2018-Aug-07 21:30N 37°45' W 122°42'1 2.7
2018-Aug-07 21:00N 37°44' W 122°41'1 2.0
2018-Aug-07 20:30N 37°45' W 122°40'1 1.9
2018-Aug-07 20:00N 37°46' W 122°41'0 0.8
2018-Aug-07 19:31N 37°46' W 122°41'1 2.2
2018-Aug-07 19:01N 37°46' W 122°40'2 3.0
2018-Aug-07 18:31N 37°46' W 122°38'1 2.4
2018-Aug-07 18:00N 37°45' W 122°39'1 2.9
2018-Aug-07 17:30N 37°44' W 122°41'1 1.1
2018-Aug-07 17:00N 37°44' W 122°42'1 2.3
2018-Aug-07 16:30N 37°45' W 122°40'1 1.3
2018-Aug-07 16:00N 37°45' W 122°41'0 0.4
2018-Aug-07 15:30N 37°46' W 122°40'1 2.1
2018-Aug-07 15:00N 37°46' W 122°40'1 2.1
2018-Aug-07 14:30N 37°46' W 122°38'2 4.7
2018-Aug-07 14:00N 37°45' W 122°41'1 2.7
2018-Aug-07 13:30N 37°45' W 122°42'1 1.5
2018-Aug-07 13:00N 37°44' W 122°42'1 2.5
2018-Aug-07 12:30N 37°44' W 122°40'1 2.2
2018-Aug-07 12:00N 37°46' W 122°40'0 0.7
2018-Aug-07 11:30N 37°46' W 122°40'1 2.6
2018-Aug-07 11:00N 37°45' W 122°41'1 1.8
2018-Aug-07 10:30N 37°46' W 122°41'1 1.9
2018-Aug-07 10:00N 37°46' W 122°40'1 1.8
2018-Aug-07 09:30N 37°46' W 122°41'1 1.9
2018-Aug-07 09:00N 37°46' W 122°40'1 1.4
2018-Aug-07 08:30N 37°45' W 122°39'1 1.8
2018-Aug-07 08:00N 37°45' W 122°40'1 1.5
2018-Aug-07 07:30N 37°46' W 122°41'1 2.3
2018-Aug-07 07:00N 37°46' W 122°40'2 3.6
2018-Aug-07 06:30N 37°46' W 122°38'4 8.4
2018-Aug-07 06:00N 37°48' W 122°33'4 9.0
2018-Aug-07 05:30N 37°49' W 122°27'3 7.0
2018-Aug-07 05:00N 37°48' W 122°31'611.5
2018-Aug-07 04:30N 37°46' W 122°38'2 4.6
2018-Aug-07 04:00N 37°46' W 122°41'1 2.4
2018-Aug-07 03:30N 37°46' W 122°40'1 2.3
2018-Aug-07 03:00N 37°46' W 122°38'1 1.9
2018-Aug-07 02:30N 37°46' W 122°39'1 1.5
2018-Aug-07 02:00N 37°46' W 122°38'1 1.4
2018-Aug-07 01:30N 37°46' W 122°39'1 2.7
2018-Aug-07 00:59N 37°46' W 122°41'1 1.4
2018-Aug-07 00:30N 37°46' W 122°40'0 0.5
2018-Aug-07 00:00N 37°46' W 122°40'0 0.9
2018-Aug-06 23:30N 37°46' W 122°39'2 4.7
2018-Aug-06 23:00N 37°44' W 122°42'0 0.7
2018-Aug-06 22:30N 37°44' W 122°42'1 1.9
2018-Aug-06 22:00N 37°45' W 122°40'2 3.1
2018-Aug-06 21:31N 37°46' W 122°39'1 1.9
2018-Aug-06 21:00N 37°46' W 122°38'3 5.2
2018-Aug-06 20:30N 37°44' W 122°40'2 3.6
2018-Aug-06 20:00N 37°46' W 122°39'1 1.2
2018-Aug-06 19:30N 37°46' W 122°38'2 4.7
2018-Aug-06 19:00N 37°46' W 122°41'1 1.8
2018-Aug-06 18:31N 37°46' W 122°40'1 1.4
2018-Aug-06 17:59N 37°46' W 122°39'1 1.7
2018-Aug-06 17:30N 37°45' W 122°39'2 3.2
2018-Aug-06 17:01N 37°44' W 122°41'2 3.1
2018-Aug-06 16:31N 37°45' W 122°39'1 2.7
2018-Aug-06 16:00N 37°46' W 122°38'612.9
2018-Aug-06 15:30N 37°48' W 122°31'511.0
2018-Aug-06 15:00N 37°48' W 122°24'0 0.0
2018-Aug-06 14:30N 37°48' W 122°24'0 0.0
2018-Aug-06 14:00N 37°48' W 122°24'0 0.0
2018-Aug-06 13:30N 37°48' W 122°24'0 0.0
2018-Aug-06 13:00N 37°48' W 122°24'0 0.0
2018-Aug-05 04:02N 37°48' W 122°24'0 0.0
2018-Aug-05 04:01N 37°48' W 122°24'0 0.0
2018-Aug-05 03:30N 37°48' W 122°24'0 0.0
2018-Aug-05 03:00N 37°48' W 122°24'0 0.0
2018-Aug-05 02:30N 37°48' W 122°24'0 0.0
2018-Aug-05 02:00N 37°48' W 122°24'0 0.0
2018-Aug-05 01:31N 37°48' W 122°24'0 0.0
2018-Aug-05 01:00N 37°48' W 122°24'0 0.0
2018-Aug-05 00:30N 37°48' W 122°24'0 0.0
2018-Aug-05 00:00N 37°48' W 122°24'0 0.0
2018-Aug-04 23:30N 37°48' W 122°24'0 0.0
2018-Aug-04 23:00N 37°48' W 122°24'0 0.0
2018-Aug-04 22:31N 37°48' W 122°24'0 0.0
2018-Aug-04 22:01N 37°48' W 122°24'0 0.0
2018-Aug-04 21:30N 37°48' W 122°24'0 0.0
2018-Aug-04 21:01N 37°48' W 122°24'0 0.0
2018-Aug-04 20:30N 37°48' W 122°24'0 0.0
2018-Aug-04 20:01N 37°48' W 122°24'0 0.0
2018-Aug-04 19:30N 37°48' W 122°24'0 0.0
2018-Aug-04 19:00N 37°48' W 122°24'0 0.0
2018-Aug-04 18:31N 37°48' W 122°24'0 0.0
2018-Aug-04 18:00N 37°48' W 122°24'0 0.0
2018-Aug-04 17:30N 37°48' W 122°24'0 0.0
2018-Aug-04 17:01N 37°48' W 122°24'0 0.0
2018-Aug-04 16:30N 37°48' W 122°24'0 0.0
2018-Aug-04 16:00N 37°48' W 122°24'0 0.0
2018-Aug-04 15:30N 37°48' W 122°24'0 0.0
2018-Aug-04 15:00N 37°48' W 122°24'0 0.0
2018-Aug-04 14:30N 37°48' W 122°24'0 0.0
2018-Aug-04 14:00N 37°48' W 122°24'0 0.0
2018-Aug-04 13:30N 37°48' W 122°24'0 0.0
2018-Aug-04 13:00N 37°48' W 122°24'0 0.0
2018-Aug-04 12:31N 37°48' W 122°24'0 0.0
2018-Aug-04 12:01N 37°48' W 122°24'0 0.0
2018-Aug-04 11:30N 37°48' W 122°24'0 0.0
2018-Aug-04 11:00N 37°48' W 122°24'0 0.0
2018-Aug-04 10:31N 37°48' W 122°24'0 0.0
2018-Aug-04 10:00N 37°48' W 122°24'0 0.0
2018-Aug-04 09:30N 37°48' W 122°24'0 0.0
2018-Aug-04 09:00N 37°48' W 122°24'0 0.0
2018-Aug-04 08:30N 37°48' W 122°24'0 0.0
2018-Aug-04 08:00N 37°48' W 122°24'0 0.0
2018-Aug-04 07:30N 37°48' W 122°24'0 0.0
2018-Aug-04 07:00N 37°48' W 122°24'0 0.0
2018-Aug-04 06:30N 37°48' W 122°24'0 0.0
2018-Aug-04 06:00N 37°48' W 122°24'0 0.0
2018-Aug-04 05:30N 37°48' W 122°24'0 0.0
2018-Aug-04 05:01N 37°48' W 122°24'0 0.0
2018-Aug-04 04:30N 37°48' W 122°24'0 0.0
2018-Aug-04 04:00N 37°48' W 122°24'0 0.0
2018-Aug-04 03:30N 37°48' W 122°24'0 0.0
2018-Aug-04 03:00N 37°48' W 122°24'0 0.0
2018-Aug-04 02:30N 37°48' W 122°24'0 0.0
2018-Aug-04 02:00N 37°48' W 122°24'0 0.0
2018-Aug-04 01:30N 37°48' W 122°24'0 0.0
2018-Aug-04 01:00N 37°48' W 122°24'0 0.0
2018-Aug-04 00:31N 37°48' W 122°24'0 0.0
2018-Aug-04 00:01N 37°48' W 122°24'0 0.0
2018-Aug-03 23:30N 37°48' W 122°24'0 0.0
2018-Aug-03 23:00N 37°48' W 122°24'0 0.0
2018-Aug-03 22:30N 37°48' W 122°24'0 0.0
2018-Aug-03 22:00N 37°48' W 122°24'0 0.0
2018-Aug-03 21:29N 37°48' W 122°24'0 0.0
2018-Aug-03 21:01N 37°48' W 122°24'0 0.0
2018-Aug-03 20:30N 37°48' W 122°24'0 0.0
2018-Aug-03 20:00N 37°48' W 122°24'0 0.0
2018-Aug-03 19:30N 37°48' W 122°24'0 0.0
2018-Aug-03 19:01N 37°48' W 122°24'0 0.0
2018-Aug-03 18:30N 37°48' W 122°24'0 0.0
2018-Aug-03 18:00N 37°48' W 122°24'0 0.0
2018-Aug-03 17:30N 37°48' W 122°24'0 0.0
2018-Aug-03 17:00N 37°48' W 122°24'0 0.0
2018-Aug-03 16:30N 37°48' W 122°24'0 0.0
2018-Aug-03 16:00N 37°48' W 122°24'0 0.0
2018-Aug-03 15:31N 37°48' W 122°24'0 0.0
2018-Aug-03 15:00N 37°48' W 122°24'0 0.0
2018-Aug-03 14:30N 37°48' W 122°24'0 0.0
2018-Aug-03 14:00N 37°48' W 122°24'0 0.0
2018-Aug-03 13:30N 37°48' W 122°24'0 0.0
2018-Aug-03 13:00N 37°48' W 122°24'0 0.0
2018-Aug-03 12:30N 37°48' W 122°24'0 0.0
2018-Aug-03 12:01N 37°48' W 122°24'0 0.0
2018-Aug-03 11:30N 37°48' W 122°24'0 0.0
2018-Aug-03 11:00N 37°48' W 122°24'0 0.0
2018-Aug-03 10:30N 37°48' W 122°24'0 0.0
2018-Aug-03 10:00N 37°48' W 122°24'0 0.0
2018-Aug-03 09:31N 37°48' W 122°24'0 0.0
2018-Aug-03 09:00N 37°48' W 122°24'0 0.0
2018-Aug-03 08:30N 37°48' W 122°24'0 0.0
2018-Aug-03 08:00N 37°48' W 122°24'0 0.0
2018-Aug-03 07:31N 37°48' W 122°24'0 0.0
2018-Aug-03 07:00N 37°48' W 122°24'0 0.0
2018-Aug-03 06:30N 37°48' W 122°24'0 0.0
2018-Aug-03 06:00N 37°48' W 122°24'0 0.0
2018-Aug-03 05:31N 37°48' W 122°24'0 0.0
2018-Aug-03 05:01N 37°48' W 122°24'0 0.0
2018-Aug-03 04:31N 37°48' W 122°24'0 0.0
2018-Aug-03 04:00N 37°48' W 122°24'0 0.0
2018-Aug-03 03:30N 37°48' W 122°24'0 0.0
2018-Aug-03 03:00N 37°48' W 122°24'0 0.0
2018-Aug-03 02:30N 37°48' W 122°24'0 0.0
2018-Aug-03 02:00N 37°48' W 122°24'0 0.0
2018-Aug-03 01:30N 37°48' W 122°24'0 0.0
2018-Aug-03 01:00N 37°48' W 122°24'0 0.0
2018-Aug-03 00:31N 37°48' W 122°24'0 0.0
2018-Aug-03 00:00N 37°48' W 122°24'0 0.0
2018-Aug-02 23:30N 37°48' W 122°24'0 0.0
2018-Aug-02 23:00N 37°48' W 122°24'0 0.0
2018-Aug-02 22:30N 37°48' W 122°24'0 0.0
2018-Aug-02 22:00N 37°48' W 122°24'0 0.0
2018-Aug-02 21:30N 37°48' W 122°24'0 0.0
2018-Aug-02 21:00N 37°48' W 122°24'0 0.0
2018-Aug-02 20:30N 37°48' W 122°24'0 0.0
2018-Aug-02 20:00N 37°48' W 122°24'0 0.0
2018-Aug-02 19:30N 37°48' W 122°24'0 0.0
2018-Aug-02 19:01N 37°48' W 122°24'0 0.0
2018-Aug-02 18:30N 37°48' W 122°24'  

Dump ship's entire track history